Time;durP1;ratioP1;P1;durP2;ratioP2;P2;SDS_P1;SDS_P2;PMS_P1;PMS_P2;Temp;Humidity;BMP_temperature;BMP_pressure;BME280_temperature;BME280_humidity;BME280_pressure;Samples;Min_cycle;Max_cycle;Signal;HPM_P1;HPM_P2
2022/05/29 00:00:13;;;;;;;2.83;1.45;;;18.20;58.70;;;;;;5089806;28;20047;-72
2022/05/29 00:02:40;;;;;;;4.40;1.88;;;18.30;58.50;;;;;;5090723;28;20052;-72
2022/05/29 00:05:08;;;;;;;3.05;1.60;;;18.10;57.80;;;;;;5090376;28;20123;-72
2022/05/29 00:07:35;;;;;;;2.40;1.60;;;18.30;57.80;;;;;;5089760;28;20134;-71
2022/05/29 00:10:03;;;;;;;3.80;1.70;;;18.40;58.70;;;;;;5090646;28;20060;-72
2022/05/29 00:12:31;;;;;;;2.33;1.50;;;17.60;57.80;;;;;;5090572;28;20060;-71
2022/05/29 00:14:57;;;;;;;3.42;1.70;;;18.00;58.30;;;;;;5109206;28;20058;-72
2022/05/29 00:17:24;;;;;;;4.57;1.80;;;18.20;53.80;;;;;;5110943;28;20412;-71
2022/05/29 00:19:51;;;;;;;2.53;1.52;;;18.20;53.80;;;;;;5109204;28;20053;-71
2022/05/29 00:22:19;;;;;;;3.42;1.50;;;19.20;59.10;;;;;;5109401;28;20061;-71
2022/05/29 00:24:45;;;;;;;2.03;1.45;;;18.10;58.00;;;;;;5109306;28;20058;-71
2022/05/29 00:27:12;;;;;;;3.38;1.58;;;18.20;57.70;;;;;;5099390;28;20064;-71
2022/05/29 00:29:40;;;;;;;3.22;1.60;;;17.80;58.50;;;;;;5088803;28;20097;-72
2022/05/29 00:32:08;;;;;;;2.97;1.65;;;18.20;53.80;;;;;;5088693;28;20425;-72
2022/05/29 00:34:34;;;;;;;5.00;1.70;;;19.10;59.30;;;;;;5088620;28;20058;-71
2022/05/29 00:37:01;;;;;;;3.60;1.70;;;18.10;53.80;;;;;;5088772;28;20501;-71
2022/05/29 00:39:28;;;;;;;2.45;1.30;;;18.10;58.00;;;;;;5090032;28;20066;-72
2022/05/29 00:41:55;;;;;;;3.42;1.95;;;18.10;53.80;;;;;;5088827;28;20417;-71
2022/05/29 00:44:23;;;;;;;3.72;1.58;;;17.90;58.20;;;;;;5089520;28;20054;-71
2022/05/29 00:46:53;;;;;;;1.88;1.50;;;18.20;58.60;;;;;;5088167;28;20135;-71
2022/05/29 00:49:24;;;;;;;2.97;1.50;;;17.00;58.10;;;;;;5108473;28;20047;-72
2022/05/29 00:51:52;;;;;;;2.42;1.50;;;17.80;58.50;;;;;;5109017;28;20058;-72
2022/05/29 00:54:19;;;;;;;3.40;1.60;;;18.00;58.40;;;;;;5108763;28;20071;-71
2022/05/29 00:56:45;;;;;;;2.08;1.38;;;18.10;53.80;;;;;;5108343;28;20086;-72
2022/05/29 00:59:14;;;;;;;3.55;1.50;;;18.10;53.80;;;;;;5108351;28;20127;-72
2022/05/29 01:01:40;;;;;;;2.53;1.63;;;18.10;53.80;;;;;;5095513;28;20102;-71
2022/05/29 01:04:09;;;;;;;4.13;1.60;;;18.70;57.90;;;;;;5108379;28;20563;-72
2022/05/29 01:06:36;;;;;;;2.45;1.50;;;18.10;53.80;;;;;;5108693;28;20449;-72
2022/05/29 01:09:03;;;;;;;3.38;1.65;;;18.80;58.40;;;;;;5108542;28;20409;-72
2022/05/29 01:11:34;;;;;;;2.80;1.75;;;18.00;58.70;;;;;;5108717;28;20048;-71
2022/05/29 01:14:04;;;;;;;2.25;1.42;;;18.00;57.70;;;;;;5108459;28;20405;-72
2022/05/29 01:16:37;;;;;;;2.72;1.52;;;18.20;57.80;;;;;;5108389;28;20062;-71
2022/05/29 01:19:20;;;;;;;3.40;1.40;;;18.10;53.90;;;;;;5109138;28;20134;-71
2022/05/29 01:22:04;;;;;;;4.22;1.40;;;17.80;58.80;;;;;;5109274;28;20082;-72
2022/05/29 01:25:08;;;;;;;3.33;1.52;;;17.90;58.40;;;;;;5108865;28;20166;-72
2022/05/29 01:27:41;;;;;;;2.20;1.50;;;18.00;53.80;;;;;;5109418;28;20142;-73
2022/05/29 01:30:10;;;;;;;3.63;1.60;;;17.60;58.40;;;;;;5092553;28;20167;-72
2022/05/29 01:32:40;;;;;;;3.63;1.67;;;18.00;53.90;;;;;;5106384;28;20133;-72
2022/05/29 01:35:10;;;;;;;3.25;1.45;;;17.90;59.10;;;;;;5088333;28;20119;-72
2022/05/29 01:37:38;;;;;;;3.03;1.50;;;18.40;58.90;;;;;;5088608;28;20052;-72
2022/05/29 01:40:07;;;;;;;3.03;1.50;;;18.10;58.90;;;;;;5088715;28;20052;-72
2022/05/29 01:42:36;;;;;;;2.35;1.40;;;18.10;58.60;;;;;;5089146;28;20139;-72
2022/05/29 01:45:07;;;;;;;3.05;1.58;;;18.00;53.90;;;;;;5108657;28;20043;-73
2022/05/29 01:47:39;;;;;;;2.60;1.55;;;19.00;58.60;;;;;;5108873;28;20055;-72
2022/05/29 01:50:09;;;;;;;3.17;1.58;;;18.10;58.80;;;;;;5098473;28;20131;-73
2022/05/29 01:52:40;;;;;;;2.38;1.55;;;18.00;53.90;;;;;;5088319;28;20135;-72
2022/05/29 01:55:08;;;;;;;2.50;1.70;;;18.00;58.90;;;;;;5088994;28;20048;-71
2022/05/29 01:57:37;;;;;;;2.67;1.67;;;17.80;58.80;;;;;;5088143;28;20051;-71
2022/05/29 02:00:06;;;;;;;3.63;1.55;;;18.10;59.00;;;;;;5088388;28;20051;-72
2022/05/29 02:02:37;;;;;;;2.40;1.35;;;17.90;53.90;;;;;;5100113;28;20557;-72
2022/05/29 02:05:08;;;;;;;2.28;1.35;;;18.00;53.90;;;;;;5109485;28;20048;-72
2022/05/29 02:07:50;;;;;;;2.25;1.40;;;16.90;57.60;;;;;;5095445;28;20131;-72
2022/05/29 02:10:24;;;;;;;3.83;1.40;;;18.00;58.70;;;;;;5093446;28;20044;-71
2022/05/29 02:12:54;;;;;;;2.50;1.40;;;17.60;57.80;;;;;;5092219;28;20048;-72
2022/05/29 02:15:23;;;;;;;2.95;1.60;;;18.00;58.40;;;;;;5093302;28;20051;-72
2022/05/29 02:17:53;;;;;;;3.42;1.50;;;17.10;58.20;;;;;;5092224;28;20068;-72
2022/05/29 02:20:22;;;;;;;2.63;1.50;;;19.10;60.30;;;;;;5091954;28;20067;-74
2022/05/29 02:22:49;;;;;;;3.58;1.70;;;18.50;58.20;;;;;;5092531;28;20425;-72
2022/05/29 02:25:18;;;;;;;1.90;1.20;;;18.00;58.90;;;;;;5092017;28;20048;-71
2022/05/29 02:27:47;;;;;;;3.92;1.50;;;17.80;58.60;;;;;;5092023;28;20465;-72
2022/05/29 02:30:14;;;;;;;2.53;1.40;;;17.70;58.20;;;;;;5092208;28;20058;-71
2022/05/29 02:32:47;;;;;;;3.75;1.52;;;17.90;54.00;;;;;;5091721;28;20060;-71
2022/05/29 02:35:18;;;;;;;3.33;1.52;;;17.10;58.40;;;;;;5092733;28;20139;-72
2022/05/29 02:37:46;;;;;;;2.38;1.45;;;17.90;53.90;;;;;;5092858;28;20052;-72
2022/05/29 02:40:20;;;;;;;2.78;1.60;;;17.90;53.90;;;;;;5094312;28;20044;-73
2022/05/29 02:42:49;;;;;;;2.47;1.42;;;18.00;59.00;;;;;;5091514;28;20135;-73
2022/05/29 02:45:21;;;;;;;2.80;1.40;;;17.80;59.60;;;;;;5097897;27;20136;-71
2022/05/29 02:47:53;;;;;;;2.75;1.40;;;17.90;58.70;;;;;;5132709;27;20055;-72
2022/05/29 02:50:30;;;;;;;3.35;1.52;;;18.20;58.70;;;;;;5132589;27;20112;-72
2022/05/29 02:52:59;;;;;;;3.08;1.40;;;17.10;58.20;;;;;;5132350;27;20050;-72
2022/05/29 02:55:25;;;;;;;1.92;1.10;;;18.00;59.10;;;;;;5131258;27;20047;-73
2022/05/29 02:57:53;;;;;;;2.85;1.40;;;16.70;58.30;;;;;;5077687;28;20121;-71
2022/05/29 03:00:21;;;;;;;2.50;1.40;;;17.70;58.40;;;;;;5111795;28;20074;-72
2022/05/29 03:02:57;;;;;;;2.58;1.30;;;18.00;59.00;;;;;;5110959;28;20134;-73
2022/05/29 03:05:26;;;;;;;3.15;1.50;;;17.70;59.00;;;;;;5111580;28;20082;-72
2022/05/29 03:08:03;;;;;;;4.40;1.77;;;17.00;58.50;;;;;;5112005;28;20058;-72
2022/05/29 03:10:32;;;;;;;2.00;1.30;;;17.80;54.00;;;;;;5111937;28;20448;-72
2022/05/29 03:13:03;;;;;;;2.83;1.50;;;17.70;58.90;;;;;;5103977;28;20048;-71
2022/05/29 03:15:39;;;;;;;1.55;1.15;;;17.50;58.90;;;;;;5090093;28;20051;-72
2022/05/29 03:18:26;;;;;;;3.42;1.50;;;17.70;53.90;;;;;;5091067;28;20052;-72
2022/05/29 03:20:59;;;;;;;2.03;1.30;;;17.30;58.30;;;;;;5091441;28;20052;-72
2022/05/29 03:23:30;;;;;;;2.08;1.30;;;16.40;59.30;;;;;;5090290;28;20055;-72
2022/05/29 03:25:59;;;;;;;2.95;1.30;;;16.70;57.70;;;;;;5090821;28;20083;-71
2022/05/29 03:28:28;;;;;;;2.58;1.10;;;16.90;58.80;;;;;;5091192;28;20139;-73
2022/05/29 03:30:55;;;;;;;2.53;1.30;;;17.90;58.80;;;;;;5092033;28;20054;-71
2022/05/29 03:33:22;;;;;;;2.78;1.30;;;17.80;59.00;;;;;;5090789;28;20062;-71
2022/05/29 03:36:06;;;;;;;1.90;1.20;;;17.70;58.50;;;;;;5097363;28;20104;-72
2022/05/29 03:38:33;;;;;;;3.83;1.55;;;17.70;53.40;;;;;;5111254;28;20051;-72
2022/05/29 03:41:00;;;;;;;3.53;1.67;;;17.70;54.00;;;;;;5111121;28;20047;-72
2022/05/29 03:43:27;;;;;;;1.95;1.48;;;17.70;54.00;;;;;;5110829;28;20078;-71
2022/05/29 03:45:53;;;;;;;4.47;1.52;;;17.40;58.20;;;;;;5106395;27;20546;-72
2022/05/29 03:48:20;;;;;;;2.30;1.40;;;17.20;59.10;;;;;;5090517;28;20051;-71
2022/05/29 03:50:47;;;;;;;2.20;1.40;;;17.50;59.40;;;;;;5090504;28;20127;-72
2022/05/29 03:53:15;;;;;;;2.55;1.20;;;17.70;53.90;;;;;;5091405;28;20495;-72
2022/05/29 03:55:41;;;;;;;2.67;1.40;;;17.80;59.10;;;;;;5089929;28;20052;-73
2022/05/29 03:58:08;;;;;;;2.80;1.33;;;17.40;58.70;;;;;;5090659;28;20517;-72
2022/05/29 04:00:35;;;;;;;1.90;1.35;;;17.80;59.00;;;;;;5089768;28;20056;-71
2022/05/29 04:03:02;;;;;;;2.75;1.30;;;16.80;57.90;;;;;;5095642;28;20048;-71
2022/05/29 04:05:29;;;;;;;2.22;1.20;;;17.60;58.10;;;;;;5089361;28;20098;-72
2022/05/29 04:13:27;;;;;;;2.15;1.30;;;17.70;54.00;;;;;;5089051;28;20576;-71
2022/05/29 04:15:54;;;;;;;1.67;1.40;;;17.70;54.00;;;;;;5089248;28;20044;-72
2022/05/29 04:18:21;;;;;;;3.03;1.30;;;17.60;58.50;;;;;;5089326;28;20164;-72
2022/05/29 04:20:50;;;;;;;2.10;1.30;;;17.00;58.60;;;;;;5090459;28;20140;-72
2022/05/29 04:23:17;;;;;;;1.67;1.20;;;17.30;58.80;;;;;;5088863;28;20051;-72
2022/05/29 04:25:45;;;;;;;2.17;1.30;;;17.80;58.90;;;;;;5090033;28;20052;-71
2022/05/29 04:28:12;;;;;;;3.00;1.33;;;17.90;59.40;;;;;;5088424;28;20113;-72
2022/05/29 04:30:38;;;;;;;3.05;1.70;;;18.40;58.60;;;;;;5088594;28;20051;-72
2022/05/29 04:33:05;;;;;;;2.33;1.38;;;17.70;59.70;;;;;;5104295;28;20058;-71
2022/05/29 04:35:36;;;;;;;3.45;1.30;;;17.60;58.60;;;;;;5105384;28;20054;-71
2022/05/29 04:38:02;;;;;;;2.65;1.40;;;17.80;58.60;;;;;;5092398;28;20046;-72
2022/05/29 04:40:30;;;;;;;3.22;1.50;;;17.50;58.60;;;;;;5095248;28;20074;-72
2022/05/29 04:42:58;;;;;;;3.63;1.60;;;17.70;54.10;;;;;;5089128;27;20056;-72
2022/05/29 04:45:24;;;;;;;3.22;1.52;;;17.50;58.40;;;;;;5097869;27;20049;-72
2022/05/29 04:47:51;;;;;;;3.35;1.70;;;18.00;58.70;;;;;;5129765;27;20051;-72
2022/05/29 04:50:18;;;;;;;3.33;1.80;;;17.70;54.00;;;;;;5129843;27;20047;-72
2022/05/29 04:52:45;;;;;;;2.55;1.70;;;17.30;58.30;;;;;;5113343;27;20056;-72
2022/05/29 04:55:12;;;;;;;2.75;1.70;;;18.20;59.80;;;;;;5088378;28;20052;-72
2022/05/29 04:57:39;;;;;;;3.42;1.73;;;17.60;59.80;;;;;;5097422;28;20414;-72
2022/05/29 05:00:08;;;;;;;2.80;1.70;;;17.50;58.60;;;;;;5099377;28;20055;-72
2022/05/29 05:02:35;;;;;;;3.75;2.30;;;17.40;58.40;;;;;;5095717;28;20052;-72
2022/05/29 05:05:01;;;;;;;3.40;1.92;;;17.40;58.20;;;;;;5094410;28;20485;-72
2022/05/29 05:07:28;;;;;;;3.50;1.80;;;18.00;58.60;;;;;;5092581;28;20043;-72
2022/05/29 05:09:55;;;;;;;2.40;1.85;;;17.60;54.00;;;;;;5095706;28;20461;-72
2022/05/29 05:12:22;;;;;;;2.28;1.83;;;17.50;60.10;;;;;;5094350;28;20054;-72
2022/05/29 05:14:49;;;;;;;2.42;1.80;;;17.60;54.00;;;;;;5098306;28;20059;-72
2022/05/29 05:17:17;;;;;;;2.95;1.85;;;17.60;58.70;;;;;;5097234;28;20044;-72
2022/05/29 05:19:43;;;;;;;3.55;2.00;;;17.50;59.10;;;;;;5092927;28;20465;-72
2022/05/29 05:22:10;;;;;;;3.40;2.00;;;17.60;58.40;;;;;;5088154;28;20055;-72
2022/05/29 05:24:38;;;;;;;2.45;1.60;;;17.70;58.40;;;;;;5087976;28;20048;-72
2022/05/29 05:27:05;;;;;;;3.38;2.00;;;17.40;58.70;;;;;;5088866;28;20044;-72
2022/05/29 05:29:32;;;;;;;4.10;1.80;;;17.60;54.00;;;;;;5105137;28;20052;-72
2022/05/29 05:31:58;;;;;;;2.50;1.55;;;17.70;58.70;;;;;;5109629;28;20086;-72
2022/05/29 05:34:28;;;;;;;2.65;1.70;;;17.60;59.00;;;;;;5107705;28;20452;-72
2022/05/29 05:36:55;;;;;;;3.00;1.80;;;17.60;54.00;;;;;;5107935;28;20039;-72
2022/05/29 05:39:24;;;;;;;3.40;1.88;;;17.60;58.60;;;;;;5109386;28;20055;-72
2022/05/29 05:41:51;;;;;;;3.30;2.00;;;17.50;58.80;;;;;;5107020;28;20055;-72
2022/05/29 05:44:18;;;;;;;2.63;1.92;;;18.30;59.20;;;;;;5101597;28;20051;-72
2022/05/29 05:46:45;;;;;;;3.95;1.90;;;17.60;54.00;;;;;;5107846;28;20051;-71
2022/05/29 05:49:12;;;;;;;2.92;1.65;;;16.60;57.90;;;;;;5108148;28;20051;-71
2022/05/29 05:51:40;;;;;;;3.42;1.83;;;17.60;53.90;;;;;;5107638;28;20143;-71
2022/05/29 05:54:07;;;;;;;3.45;1.90;;;17.60;58.00;;;;;;5108951;28;20044;-71
2022/05/29 05:56:34;;;;;;;2.42;1.75;;;17.80;58.40;;;;;;5107962;28;20070;-71
2022/05/29 05:59:01;;;;;;;2.78;1.70;;;17.40;58.40;;;;;;5100889;28;20060;-71
2022/05/29 06:01:27;;;;;;;2.75;1.90;;;16.60;58.40;;;;;;5091502;28;20044;-71
2022/05/29 06:03:54;;;;;;;3.05;2.00;;;17.70;58.20;;;;;;5107559;28;20490;-71
2022/05/29 06:06:21;;;;;;;5.22;2.08;;;17.50;58.70;;;;;;5109341;28;20051;-71
2022/05/29 06:08:49;;;;;;;3.03;2.05;;;17.60;53.90;;;;;;5107950;28;20048;-71
2022/05/29 06:11:16;;;;;;;4.35;2.13;;;17.60;59.70;;;;;;5109008;28;20707;-71
2022/05/29 06:13:42;;;;;;;5.60;2.15;;;17.60;53.90;;;;;;5107435;28;20058;-71
2022/05/29 06:16:09;;;;;;;3.00;1.90;;;17.60;58.10;;;;;;5096312;28;20058;-71
2022/05/29 06:18:36;;;;;;;3.97;1.80;;;17.60;58.80;;;;;;5088376;28;20056;-71
2022/05/29 06:21:04;;;;;;;3.03;2.00;;;17.50;59.80;;;;;;5088910;28;20052;-71
2022/05/29 06:23:31;;;;;;;3.55;2.00;;;17.60;60.20;;;;;;5088514;28;20059;-71
2022/05/29 06:26:01;;;;;;;2.45;1.83;;;17.60;53.90;;;;;;5106885;28;20056;-71
2022/05/29 06:28:27;;;;;;;4.20;2.00;;;17.60;53.80;;;;;;5108525;28;20054;-71
2022/05/29 06:30:54;;;;;;;3.30;2.00;;;17.60;53.80;;;;;;5106949;28;20584;-71
2022/05/29 06:33:21;;;;;;;3.00;2.05;;;17.40;59.10;;;;;;5108646;28;20044;-71
2022/05/29 06:35:47;;;;;;;2.67;1.98;;;17.60;53.90;;;;;;5107540;28;20044;-72
2022/05/29 06:38:14;;;;;;;4.70;2.00;;;17.70;59.10;;;;;;5108936;28;20055;-71
2022/05/29 06:40:42;;;;;;;3.60;1.92;;;17.60;58.60;;;;;;5107598;28;20150;-71
2022/05/29 06:43:12;;;;;;;3.08;1.85;;;17.50;58.90;;;;;;5108617;28;20051;-71
2022/05/29 06:45:39;;;;;;;3.67;1.92;;;17.60;58.50;;;;;;5103216;28;20048;-71
2022/05/29 06:48:06;;;;;;;2.90;1.58;;;;;;;;;;5088359;28;20650;-71
2022/05/29 06:50:33;;;;;;;3.22;1.90;;;17.90;58.30;;;;;;5088807;28;20123;-71
2022/05/29 06:53:00;;;;;;;3.58;1.73;;;17.20;58.30;;;;;;5090518;28;20056;-71
2022/05/29 06:55:26;;;;;;;2.45;1.83;;;17.60;53.80;;;;;;5091898;28;20494;-71
2022/05/29 06:57:53;;;;;;;3.88;2.00;;;17.60;58.10;;;;;;5090558;28;20052;-71
2022/05/29 07:08:38;;;;;;;3.60;2.05;;;17.50;53.80;;;;;;5090822;28;20048;-71
2022/05/29 07:11:06;;;;;;;2.50;1.67;;;17.60;58.20;;;;;;5090650;28;20056;-71
2022/05/29 07:13:34;;;;;;;2.55;1.67;;;18.50;59.90;;;;;;5096680;28;20039;-71
2022/05/29 07:16:02;;;;;;;6.93;2.08;;;17.60;53.80;;;;;;5092460;28;20510;-71
2022/05/29 07:18:30;;;;;;;4.97;2.20;;;17.30;58.20;;;;;;5093472;28;20074;-71
2022/05/29 07:20:59;;;;;;;5.30;2.10;;;17.40;59.20;;;;;;5107396;28;20043;-71
2022/05/29 07:23:26;;;;;;;4.00;1.60;;;17.90;58.90;;;;;;5110585;28;20058;-71
2022/05/29 07:25:52;;;;;;;4.70;2.00;;;17.20;58.70;;;;;;5110581;28;20524;-71
2022/05/29 07:28:19;;;;;;;5.68;1.80;;;17.50;59.20;;;;;;5110579;28;20055;-71
2022/05/29 07:30:48;;;;;;;4.57;2.17;;;17.50;58.40;;;;;;5111866;28;20401;-71
2022/05/29 07:33:16;;;;;;;4.93;2.00;;;16.40;58.40;;;;;;5110277;28;20058;-72
2022/05/29 07:35:43;;;;;;;2.92;1.80;;;18.10;59.20;;;;;;5109715;28;20050;-71
2022/05/29 07:38:09;;;;;;;3.50;1.80;;;17.50;53.70;;;;;;5111756;28;20047;-72
2022/05/29 07:40:36;;;;;;;3.65;1.98;;;16.80;58.10;;;;;;5111391;28;20086;-70
2022/05/29 07:43:22;;;;;;;3.40;1.73;;;17.60;58.80;;;;;;5111474;28;20058;-70
2022/05/29 07:45:49;;;;;;;2.55;1.55;;;16.60;58.40;;;;;;5111378;28;20115;-70
2022/05/29 07:48:17;;;;;;;3.92;1.90;;;17.70;58.60;;;;;;5111442;28;20475;-73
2022/05/29 07:50:44;;;;;;;5.65;2.10;;;17.40;59.30;;;;;;5111415;28;20079;-72
2022/05/29 07:53:10;;;;;;;4.13;1.88;;;17.30;57.90;;;;;;5094901;28;20143;-71
2022/05/29 07:55:38;;;;;;;3.17;1.70;;;16.60;58.30;;;;;;5091197;28;20056;-70
2022/05/29 07:58:05;;;;;;;2.95;1.70;;;18.30;58.40;;;;;;5090349;28;20051;-71
2022/05/29 08:00:32;;;;;;;3.97;1.90;;;17.70;59.00;;;;;;5091220;28;20160;-71
2022/05/29 08:02:58;;;;;;;2.15;1.67;;;16.80;57.80;;;;;;5105987;28;20047;-71
2022/05/29 08:05:26;;;;;;;3.53;1.90;;;17.60;53.50;;;;;;5111245;28;20055;-71
2022/05/29 08:07:53;;;;;;;3.45;1.88;;;16.90;57.70;;;;;;5109751;28;20040;-71
2022/05/29 08:10:21;;;;;;;3.40;1.83;;;17.20;58.90;;;;;;5091037;28;20135;-71
2022/05/29 08:12:48;;;;;;;5.00;1.95;;;16.90;59.10;;;;;;5090331;28;20135;-70
2022/05/29 08:15:15;;;;;;;4.07;1.92;;;17.50;58.00;;;;;;5091034;28;20056;-72
2022/05/29 08:17:41;;;;;;;3.17;1.80;;;17.70;58.20;;;;;;5101997;28;20612;-71
2022/05/29 08:20:09;;;;;;;3.78;2.08;;;17.40;59.00;;;;;;5110829;28;20058;-71
2022/05/29 08:22:37;;;;;;;3.65;1.80;;;17.40;59.30;;;;;;5111054;28;20057;-71
2022/05/29 08:30:43;;;;;;;2.88;1.73;;;17.30;58.40;;;;;;5090404;28;20047;-70
2022/05/29 08:33:10;;;;;;;3.20;1.73;;;17.60;58.80;;;;;;5089509;28;20060;-71
2022/05/29 08:35:38;;;;;;;3.40;1.75;;;17.60;58.70;;;;;;5089834;28;20051;-72
2022/05/29 08:38:06;;;;;;;4.47;1.98;;;17.60;58.80;;;;;;5089332;28;20054;-71
2022/05/29 08:40:33;;;;;;;2.38;1.60;;;17.60;59.50;;;;;;5089864;28;20056;-70
2022/05/29 08:43:00;;;;;;;3.03;1.80;;;17.60;53.50;;;;;;5105569;28;20059;-71
2022/05/29 08:45:27;;;;;;;3.05;1.90;;;18.50;58.90;;;;;;5105997;28;20050;-71
2022/05/29 08:47:53;;;;;;;3.22;1.90;;;18.20;58.60;;;;;;5102988;28;20057;-70
2022/05/29 08:50:22;;;;;;;4.28;2.03;;;16.70;57.50;;;;;;5103287;28;20055;-71
2022/05/29 08:52:57;;;;;;;3.45;1.80;;;17.30;57.70;;;;;;5099268;28;20494;-70
2022/05/29 08:55:26;;;;;;;3.53;2.22;;;17.60;58.50;;;;;;5090818;28;20048;-71
2022/05/29 08:57:58;;;;;;;3.25;1.75;;;17.90;58.80;;;;;;5088536;28;20083;-72
2022/05/29 09:00:31;;;;;;;4.10;1.88;;;17.00;58.30;;;;;;5099629;28;20126;-71
2022/05/29 09:03:05;;;;;;;3.25;1.90;;;17.80;58.60;;;;;;5101324;27;20055;-70
2022/05/29 09:05:35;;;;;;;2.55;1.60;;;17.40;58.30;;;;;;5098460;28;20059;-70
2022/05/29 09:08:04;;;;;;;3.00;1.70;;;17.90;58.70;;;;;;5095966;28;20050;-70
2022/05/29 09:10:34;;;;;;;3.60;1.95;;;17.70;59.00;;;;;;5098199;28;20063;-72
2022/05/29 09:13:03;;;;;;;3.63;1.70;;;17.70;53.30;;;;;;5098539;28;20040;-70
2022/05/29 09:15:32;;;;;;;4.60;1.98;;;17.90;57.90;;;;;;5095690;28;20054;-71
2022/05/29 09:18:01;;;;;;;2.63;1.70;;;17.70;57.90;;;;;;5096158;28;20054;-71
2022/05/29 09:20:29;;;;;;;2.60;1.55;;;18.20;58.00;;;;;;5098128;28;20054;-70
2022/05/29 09:22:57;;;;;;;3.22;1.73;;;17.80;53.30;;;;;;5096700;28;20048;-71
2022/05/29 09:25:27;;;;;;;3.83;1.85;;;18.70;58.60;;;;;;5097303;28;20082;-72
2022/05/29 09:27:55;;;;;;;3.40;1.65;;;18.10;59.70;;;;;;5097740;28;20048;-72
2022/05/29 09:30:22;;;;;;;4.13;1.70;;;17.50;58.10;;;;;;5100034;28;20512;-72
2022/05/29 09:32:51;;;;;;;5.28;1.70;;;17.60;57.80;;;;;;5092062;28;20554;-72
2022/05/29 09:35:22;;;;;;;3.08;1.80;;;17.80;53.30;;;;;;5090162;28;20131;-72
2022/05/29 09:37:54;;;;;;;4.68;1.70;;;18.00;58.90;;;;;;5088628;28;20048;-72
2022/05/29 09:40:23;;;;;;;2.35;1.70;;;17.80;59.50;;;;;;5097008;28;20044;-74
2022/05/29 09:42:52;;;;;;;4.35;1.80;;;17.80;57.60;;;;;;5088841;28;20075;-72
2022/05/29 09:45:30;;;;;;;4.28;1.92;;;18.00;58.40;;;;;;5090862;28;20051;-72
2022/05/29 09:50:46;;;;;;;3.67;1.80;;;17.50;59.40;;;;;;5098758;28;20039;-72
2022/05/29 09:53:15;;;;;;;3.80;1.65;;;17.80;58.00;;;;;;5100394;28;20205;-72
2022/05/29 09:55:49;;;;;;;3.15;1.60;;;18.40;58.00;;;;;;5098690;28;20044;-72
2022/05/29 09:58:20;;;;;;;2.78;1.90;;;17.90;53.30;;;;;;5099161;28;20502;-74
2022/05/29 10:00:55;;;;;;;4.28;2.40;;;17.90;58.80;;;;;;5100912;28;20126;-72
2022/05/29 10:03:50;;;;;;;7.60;1.83;;;17.90;58.80;;;;;;5092899;28;20055;-72
2022/05/29 10:06:19;;;;;;;2.90;1.40;;;17.90;53.20;;;;;;5077636;28;20059;-72
2022/05/29 10:08:45;;;;;;;2.80;1.77;;;17.60;58.50;;;;;;5097297;28;20401;-72
2022/05/29 10:11:16;;;;;;;3.38;1.70;;;17.00;58.90;;;;;;5098695;28;20430;-72
2022/05/29 10:13:43;;;;;;;3.72;1.70;;;17.40;57.60;;;;;;5096594;28;20676;-72
2022/05/29 10:16:11;;;;;;;3.08;1.65;;;17.90;58.20;;;;;;5097429;28;20040;-72
2022/05/29 10:18:39;;;;;;;4.22;1.70;;;17.90;59.60;;;;;;5098673;28;20053;-74
2022/05/29 10:21:08;;;;;;;3.33;1.77;;;17.90;58.30;;;;;;5099256;28;20067;-72
2022/05/29 10:23:36;;;;;;;4.32;1.63;;;18.00;58.60;;;;;;5088065;28;20490;-72
2022/05/29 10:26:05;;;;;;;4.05;2.10;;;17.90;59.40;;;;;;5088107;28;20188;-72
2022/05/29 10:28:35;;;;;;;8.93;1.88;;;18.00;59.60;;;;;;5092007;28;20052;-72
2022/05/29 10:31:02;;;;;;;5.20;1.75;;;18.10;58.10;;;;;;5091863;28;20143;-72
2022/05/29 10:33:31;;;;;;;4.68;1.48;;;18.10;53.20;;;;;;5092562;28;20131;-72
2022/05/29 10:35:59;;;;;;;3.13;1.65;;;17.80;57.90;;;;;;5098688;28;20050;-70
2022/05/29 10:38:27;;;;;;;4.82;1.98;;;18.10;53.20;;;;;;5111421;28;20047;-70
2022/05/29 10:40:55;;;;;;;5.18;1.70;;;18.10;53.20;;;;;;5112685;28;20134;-71
2022/05/29 10:43:39;;;;;;;6.93;2.97;;;18.10;53.10;;;;;;5105584;28;20047;-72
2022/05/29 10:46:07;;;;;;;8.13;2.95;;;17.90;58.70;;;;;;5106405;28;20154;-71
2022/05/29 10:48:53;;;;;;;5.20;2.30;;;18.10;53.20;;;;;;5112845;28;20131;-72
2022/05/29 10:51:22;;;;;;;4.97;2.50;;;18.10;53.20;;;;;;5095097;28;20104;-73
2022/05/29 10:53:59;;;;;;;4.75;2.50;;;18.00;57.80;;;;;;5091277;28;20060;-71
2022/05/29 10:56:30;;;;;;;3.90;2.50;;;17.90;57.40;;;;;;5092457;28;20066;-72
2022/05/29 10:59:07;;;;;;;5.53;2.50;;;17.90;58.80;;;;;;5091686;28;20051;-71
2022/05/29 11:04:51;;;;;;;5.43;2.83;;;18.20;58.30;;;;;;5090223;28;20055;-72
2022/05/29 11:07:33;;;;;;;4.47;2.50;;;18.10;53.10;;;;;;5110373;28;20048;-72
2022/05/29 11:10:09;;;;;;;4.72;2.85;;;17.50;58.30;;;;;;5095226;28;20052;-72
2022/05/29 11:12:40;;;;;;;5.68;2.30;;;19.20;59.30;;;;;;5090762;28;20051;-71
2022/05/29 11:15:12;;;;;;;5.72;3.05;;;19.00;58.60;;;;;;5090968;28;20062;-72
2022/05/29 11:17:47;;;;;;;4.57;2.70;;;18.10;53.10;;;;;;5091846;28;20086;-72
2022/05/29 11:20:28;;;;;;;6.60;2.40;;;18.10;57.50;;;;;;5090041;28;20056;-72
2022/05/29 11:23:02;;;;;;;6.35;2.70;;;18.00;57.40;;;;;;5089611;28;20054;-72
2022/05/29 11:25:36;;;;;;;6.25;2.95;;;18.30;53.30;;;;;;5102800;28;20052;-71
2022/05/29 11:28:13;;;;;;;6.38;2.80;;;18.20;52.80;;;;;;5110982;28;20091;-72
2022/05/29 11:30:48;;;;;;;7.40;3.03;;;18.10;58.20;;;;;;5111364;28;20051;-73
2022/05/29 11:33:25;;;;;;;;;;;18.10;52.90;;;;;;5112429;28;20118;-71
2022/05/29 11:36:05;;;;;;;5.50;4.15;;;18.00;58.00;;;;;;5110909;28;19924;-74
2022/05/29 11:38:45;;;;;;;6.95;5.05;;;18.40;53.20;;;;;;5100542;28;20047;-72
2022/05/29 11:41:13;;;;;;;8.85;5.85;;;18.10;53.10;;;;;;5093348;28;20047;-72
2022/05/29 11:43:47;;;;;;;8.43;6.07;;;18.10;53.10;;;;;;5090829;28;20050;-72
2022/05/29 11:51:50;;;;;;;8.77;5.70;;;18.10;57.70;;;;;;5098938;28;20044;-72
2022/05/29 11:54:19;;;;;;;8.93;5.25;;;18.20;53.20;;;;;;5097871;28;20565;-72
2022/05/29 11:56:48;;;;;;;8.73;5.80;;;18.20;53.20;;;;;;5105509;28;20040;-72
2022/05/29 11:59:17;;;;;;;7.38;5.68;;;18.00;57.70;;;;;;5089985;28;20401;-72
2022/05/29 12:01:46;;;;;;;10.27;5.55;;;17.60;59.00;;;;;;5105451;28;20062;-72
2022/05/29 12:04:15;;;;;;;8.50;6.10;;;18.20;57.20;;;;;;5103793;28;20394;-72
2022/05/29 12:06:43;;;;;;;8.02;5.28;;;18.20;53.20;;;;;;5098702;28;20109;-72
2022/05/29 12:09:14;;;;;;;8.63;5.30;;;18.30;53.20;;;;;;5106732;28;20444;-72
2022/05/29 12:11:43;;;;;;;8.50;5.15;;;18.30;53.20;;;;;;5109913;28;20085;-75
2022/05/29 12:14:13;;;;;;;6.63;4.53;;;19.10;57.40;;;;;;5109458;28;20051;-72
2022/05/29 12:16:41;;;;;;;6.80;4.45;;;18.30;53.10;;;;;;5109765;28;20055;-72
2022/05/29 12:19:10;;;;;;;7.50;4.25;;;18.30;53.10;;;;;;5091672;28;20078;-71
2022/05/29 12:21:39;;;;;;;8.30;3.53;;;17.30;57.20;;;;;;5107767;28;20040;-72
2022/05/29 12:24:09;;;;;;;6.32;3.45;;;18.50;56.90;;;;;;5109118;28;20059;-71
2022/05/29 12:26:39;;;;;;;6.47;3.70;;;18.30;52.80;;;;;;5092482;28;20599;-71
2022/05/29 12:29:08;;;;;;;14.82;4.05;;;18.30;58.00;;;;;;5104466;28;20489;-71
2022/05/29 12:31:36;;;;;;;11.30;4.13;;;18.30;52.90;;;;;;5109214;28;20063;-71
2022/05/29 12:34:03;;;;;;;6.35;3.85;;;18.70;57.10;;;;;;5108926;28;20047;-71
2022/05/29 12:36:50;;;;;;;7.40;3.58;;;18.40;57.90;;;;;;5110107;28;20054;-71
2022/05/29 12:39:23;;;;;;;8.88;3.60;;;19.50;58.40;;;;;;5109118;28;20051;-71
2022/05/29 12:42:17;;;;;;;6.05;3.42;;;18.40;57.90;;;;;;5110291;28;20047;-71
2022/05/29 12:45:15;;;;;;;6.78;3.55;;;18.50;57.30;;;;;;5109094;28;20049;-71
2022/05/29 12:47:52;;;;;;;6.45;3.40;;;18.30;52.80;;;;;;5072308;28;20054;-71
2022/05/29 12:50:24;;;;;;;5.75;3.60;;;17.50;57.80;;;;;;5087978;28;20056;-71
2022/05/29 12:53:28;;;;;;;6.28;3.03;;;18.30;52.90;;;;;;5088011;28;20047;-71
2022/05/29 12:56:18;;;;;;;5.90;3.10;;;17.90;57.30;;;;;;5032908;28;20062;-71
2022/05/29 12:58:53;;;;;;;5.47;3.50;;;18.40;58.90;;;;;;5097088;28;20138;-72
2022/05/29 13:01:27;;;;;;;6.78;3.22;;;18.20;57.40;;;;;;5103805;28;20059;-73
2022/05/29 13:04:30;;;;;;;5.80;2.80;;;18.10;57.10;;;;;;5090590;28;20052;-73
2022/05/29 13:07:20;;;;;;;10.02;3.30;;;18.30;57.60;;;;;;5086542;28;20133;-72
2022/05/29 13:10:16;;;;;;;6.38;3.17;;;18.10;57.60;;;;;;5086903;28;20051;-72
2022/05/29 13:12:46;;;;;;;5.07;2.60;;;18.30;58.00;;;;;;5086826;28;20510;-72
2022/05/29 13:15:23;;;;;;;7.50;2.90;;;18.00;58.00;;;;;;5087003;28;20058;-73
2022/05/29 13:18:03;;;;;;;5.53;2.60;;;18.30;57.10;;;;;;5086877;28;20079;-72
2022/05/29 13:20:30;;;;;;;5.78;2.45;;;18.30;53.00;;;;;;5087760;28;20047;-72
2022/05/29 13:23:00;;;;;;;4.60;2.53;;;18.30;53.00;;;;;;5104824;28;20104;-73
2022/05/29 13:25:28;;;;;;;4.78;2.40;;;18.50;57.90;;;;;;5108445;28;20082;-73
2022/05/29 13:27:56;;;;;;;5.05;3.05;;;18.10;57.10;;;;;;5091976;28;20070;-73
2022/05/29 13:31:07;;;;;;;7.03;2.72;;;18.10;57.20;;;;;;5088269;28;20810;-72
2022/05/29 13:34:20;;;;;;;3.72;2.50;;;18.30;52.90;;;;;;5087193;28;20055;-71